Weather at Hvar Airport

Public forecast

Using degrees Celsius for public forecast. Weather courtesy of forecast.io.

Closest aviation weather report (METAR) to Hvar Airport

Report is more than 6 hours old.

Closest report is Brač Airport, 6.6 nm (12.2 km) NNE. Retrieved 2021/11/13 11:00 UTC (22 days ago):

LDSB 131100Z 15008KT 100V170 1200 BR SCT002 BKN004 13/12 Q1020

Closest aviation forecast (TAF) to Hvar Airport

Forecast is more than 12 hours old.

Closest forecast is Brač Airport, 6.6 nm (12.2 km) NNE. Retrieved 2021/11/13 10:45 UTC (22 days ago):

TAF COR TAF COR LDSB 130940Z 1310/1406 15010KT 0200 FG VV003 TX15/1313Z TN11/1405Z PROB30 TEMPO 1310/1318 1000 -TSRA BKN003 FEW010CB TEMPO 1318/1406 0500 +RA BKN001 PROB40 TEMPO 1320/1406 0100 +TSRA BKN001 SCT005CB